Time;durP1;ratioP1;P1;durP2;ratioP2;P2;SDS_P1;SDS_P2;PMS_P1;PMS_P2;Temp;Humidity;BMP_temperature;BMP_pressure;BME280_temperature;BME280_humidity;BME280_pressure;Samples;Min_cycle;Max_cycle;Signal;HPM_P1;HPM_P2
2024/01/28 00:02:35;;;;;;;17.25;13.10;;;;;;;;;;10404340;28;20435;-58
2024/01/28 00:07:36;;;;;;;16.35;12.40;;;;;;;;;;10408807;28;20025;-59
2024/01/28 00:12:37;;;;;;;17.88;12.68;;;;;;;;;;10406032;28;20502;-59
2024/01/28 00:17:38;;;;;;;24.63;12.70;;;;;;;;;;10408963;28;20064;-59
2024/01/28 00:22:38;;;;;;;17.70;12.48;;;;;;;;;;10405855;28;20668;-59
2024/01/28 00:27:39;;;;;;;17.77;12.82;;;;;;;;;;10407318;28;20044;-59
2024/01/28 00:32:41;;;;;;;16.80;12.40;;;;;;;;;;10407432;28;20041;-59
2024/01/28 00:37:42;;;;;;;17.30;12.52;;;;;;;;;;10409454;28;20116;-59
2024/01/28 00:42:42;;;;;;;14.18;11.57;;;;;;;;;;10396005;28;20037;-59
2024/01/28 00:47:44;;;;;;;16.20;12.57;;;;;;;;;;10393685;28;20025;-58
2024/01/28 00:52:44;;;;;;;16.42;13.00;;;;;;;;;;10401826;28;20037;-58
2024/01/28 00:57:45;;;;;;;14.80;11.93;;;;;;;;;;10409497;28;20033;-59
2024/01/28 01:02:46;;;;;;;17.20;12.25;;;;;;;;;;10403631;28;20033;-59
2024/01/28 01:07:46;;;;;;;15.88;12.23;;;;;;;;;;10404346;28;20037;-58
2024/01/28 01:12:47;;;;;;;15.85;11.48;;;;;;;;;;10403881;28;20033;-58
2024/01/28 01:17:49;;;;;;;15.60;12.10;;;;;;;;;;10403579;28;20075;-59
2024/01/28 01:22:50;;;;;;;16.40;11.70;;;;;;;;;;10404669;28;20401;-59
2024/01/28 01:27:52;;;;;;;18.55;11.95;;;;;;;;;;10398743;28;20041;-58
2024/01/28 01:32:52;;;;;;;15.55;11.75;;;;;;;;;;10400462;28;20033;-60
2024/01/28 01:37:56;;;;;;;14.18;11.20;;;;;;;;;;10405146;28;20042;-58
2024/01/28 01:42:57;;;;;;;14.43;11.75;;;;;;;;;;10402788;28;20148;-58
2024/01/28 01:47:58;;;;;;;14.68;10.45;;;;;;;;;;10403950;28;20483;-59
2024/01/28 01:53:00;;;;;;;16.25;11.90;;;;;;;;;;10405694;28;20400;-60
2024/01/28 01:58:03;;;;;;;15.45;11.25;;;;;;;;;;10401402;28;20083;-58
2024/01/28 02:03:04;;;;;;;16.45;11.32;;;;;;;;;;10399611;28;20025;-58
2024/01/28 02:08:05;;;;;;;14.63;11.20;;;;;;;;;;10398226;28;20040;-59
2024/01/28 02:13:07;;;;;;;15.07;11.23;;;;;;;;;;10399445;28;20369;-58
2024/01/28 02:18:07;;;;;;;13.40;10.70;;;;;;;;;;10406185;28;20044;-60
2024/01/28 02:23:08;;;;;;;16.65;11.25;;;;;;;;;;10401958;28;20089;-59
2024/01/28 02:28:08;;;;;;;15.75;9.70;;;;;;;;;;10404661;28;20030;-59
2024/01/28 02:33:09;;;;;;;15.38;11.57;;;;;;;;;;10403596;28;20076;-58
2024/01/28 02:38:11;;;;;;;13.20;10.80;;;;;;;;;;10405037;28;20523;-59
2024/01/28 02:43:12;;;;;;;15.50;10.48;;;;;;;;;;10402603;28;20072;-59
2024/01/28 02:48:12;;;;;;;14.15;10.65;;;;;;;;;;10401848;28;20022;-58
2024/01/28 02:53:14;;;;;;;13.30;10.35;;;;;;;;;;10405459;28;20025;-59
2024/01/28 02:58:16;;;;;;;13.18;10.00;;;;;;;;;;10403899;28;20543;-58
2024/01/28 03:03:17;;;;;;;12.40;10.68;;;;;;;;;;10402438;28;20063;-58
2024/01/28 03:08:17;;;;;;;14.73;10.50;;;;;;;;;;10394006;28;20497;-58
2024/01/28 03:13:18;;;;;;;13.27;10.32;;;;;;;;;;10401114;28;20074;-58
2024/01/28 03:18:18;;;;;;;14.35;10.23;;;;;;;;;;10389408;28;20034;-58
2024/01/28 03:23:19;;;;;;;12.00;10.45;;;;;;;;;;10382893;28;20276;-58
2024/01/28 03:28:20;;;;;;;14.18;10.77;;;;;;;;;;10381590;28;20033;-58
2024/01/28 03:33:21;;;;;;;11.07;9.77;;;;;;;;;;10399952;28;20052;-59
2024/01/28 03:38:21;;;;;;;12.70;10.75;;;;;;;;;;10400943;28;20057;-59
2024/01/28 03:43:23;;;;;;;12.57;10.45;;;;;;;;;;10382783;28;20072;-58
2024/01/28 03:48:24;;;;;;;12.82;10.18;;;;;;;;;;10406968;28;20499;-58
2024/01/28 03:53:24;;;;;;;11.63;10.05;;;;;;;;;;10411132;28;20025;-58
2024/01/28 03:58:25;;;;;;;13.27;10.13;;;;;;;;;;10408377;28;20071;-58
2024/01/28 04:03:26;;;;;;;12.85;9.77;;;;;;;;;;10411189;28;20038;-58
2024/01/28 04:08:26;;;;;;;12.70;9.98;;;;;;;;;;10409908;28;20034;-59
2024/01/28 04:13:27;;;;;;;12.77;10.05;;;;;;;;;;10399368;28;20400;-58
2024/01/28 04:18:27;;;;;;;11.32;9.77;;;;;;;;;;10399843;28;20033;-58
2024/01/28 04:23:28;;;;;;;13.00;10.40;;;;;;;;;;10409775;28;20036;-59
2024/01/28 04:28:28;;;;;;;11.77;9.38;;;;;;;;;;10401672;28;20461;-59
2024/01/28 04:33:29;;;;;;;10.95;9.45;;;;;;;;;;10410057;28;20484;-59
2024/01/28 04:38:30;;;;;;;10.60;9.35;;;;;;;;;;10409262;28;20053;-59
2024/01/28 04:43:31;;;;;;;10.23;9.13;;;;;;;;;;10404473;28;20041;-59
2024/01/28 04:48:31;;;;;;;11.50;9.35;;;;;;;;;;10401174;28;20041;-59
2024/01/28 04:53:32;;;;;;;12.52;9.65;;;;;;;;;;10408463;28;20033;-60
2024/01/28 04:58:32;;;;;;;13.35;8.70;;;;;;;;;;10407165;28;20036;-58
2024/01/28 05:03:33;;;;;;;12.60;9.18;;;;;;;;;;10408007;28;20025;-59
2024/01/28 05:08:34;;;;;;;11.77;8.93;;;;;;;;;;10402761;28;20480;-59
2024/01/28 05:13:36;;;;;;;14.38;9.55;;;;;;;;;;10398810;28;20068;-61
2024/01/28 05:18:36;;;;;;;11.93;9.30;;;;;;;;;;10402499;28;20037;-58
2024/01/28 05:23:37;;;;;;;12.50;9.10;;;;;;;;;;10405446;28;20033;-59
2024/01/28 05:28:37;;;;;;;11.32;9.05;;;;;;;;;;10407153;28;20052;-58
2024/01/28 05:33:38;;;;;;;13.40;9.40;;;;;;;;;;10407706;28;20692;-58
2024/01/28 05:38:40;;;;;;;9.88;8.40;;;;;;;;;;10402838;28;20504;-59
2024/01/28 05:43:41;;;;;;;11.27;8.75;;;;;;;;;;10404001;28;20245;-58
2024/01/28 05:48:41;;;;;;;10.80;8.52;;;;;;;;;;10399129;28;20566;-59
2024/01/28 05:53:42;;;;;;;10.25;8.23;;;;;;;;;;10397375;28;20456;-59
2024/01/28 05:58:42;;;;;;;10.52;8.52;;;;;;;;;;10404457;28;20393;-59
2024/01/28 06:03:43;;;;;;;11.23;8.75;;;;;;;;;;10404425;28;20684;-59
2024/01/28 06:08:43;;;;;;;11.52;8.98;;;;;;;;;;10393378;28;20389;-59
2024/01/28 06:13:44;;;;;;;11.63;8.60;;;;;;;;;;10403680;28;20029;-59
2024/01/28 06:18:44;;;;;;;9.35;8.27;;;;;;;;;;10404070;28;20037;-58
2024/01/28 06:23:45;;;;;;;10.07;7.97;;;;;;;;;;10392915;28;20029;-59
2024/01/28 06:28:46;;;;;;;11.85;8.48;;;;;;;;;;10401125;28;20037;-59
2024/01/28 06:33:46;;;;;;;10.80;8.05;;;;;;;;;;10401234;28;20029;-58
2024/01/28 06:38:47;;;;;;;10.40;8.05;;;;;;;;;;10400386;28;20132;-58
2024/01/28 06:43:48;;;;;;;12.80;8.85;;;;;;;;;;10402850;28;20056;-59
2024/01/28 06:48:48;;;;;;;12.13;8.82;;;;;;;;;;10401498;28;20481;-59
2024/01/28 06:53:51;;;;;;;10.30;8.40;;;;;;;;;;10404235;28;20037;-60
2024/01/28 06:58:52;;;;;;;11.27;8.65;;;;;;;;;;10403390;28;20057;-59
2024/01/28 07:03:52;;;;;;;11.18;8.40;;;;;;;;;;10401421;28;20034;-59
2024/01/28 07:08:53;;;;;;;9.68;7.93;;;;;;;;;;10401273;28;20033;-60
2024/01/28 07:13:54;;;;;;;9.70;8.38;;;;;;;;;;10403309;28;20260;-60
2024/01/28 07:18:54;;;;;;;9.73;8.00;;;;;;;;;;10401724;28;20029;-58
2024/01/28 07:23:55;;;;;;;9.43;7.88;;;;;;;;;;10389500;28;20087;-59
2024/01/28 07:28:55;;;;;;;10.30;8.13;;;;;;;;;;10398639;28;20030;-59
2024/01/28 07:33:57;;;;;;;10.18;9.15;;;;;;;;;;10405611;28;20026;-59
2024/01/28 07:38:58;;;;;;;12.15;8.65;;;;;;;;;;10410674;28;20508;-58
2024/01/28 07:43:58;;;;;;;9.63;7.68;;;;;;;;;;10412891;28;20030;-60
2024/01/28 07:48:59;;;;;;;9.07;8.18;;;;;;;;;;10408041;28;20038;-59
2024/01/28 07:54:00;;;;;;;9.43;7.60;;;;;;;;;;10397999;28;20033;-62
2024/01/28 07:59:00;;;;;;;10.45;8.18;;;;;;;;;;10407939;28;20040;-60
2024/01/28 08:04:01;;;;;;;9.48;7.68;;;;;;;;;;10401585;28;20036;-60
2024/01/28 08:09:01;;;;;;;10.23;7.82;;;;;;;;;;10410261;28;20037;-59
2024/01/28 08:14:02;;;;;;;10.88;7.78;;;;;;;;;;10409737;28;20025;-60
2024/01/28 08:19:04;;;;;;;9.00;7.53;;;;;;;;;;10396411;28;20037;-60
2024/01/28 08:24:05;;;;;;;9.20;7.10;;;;;;;;;;10399969;28;20103;-60
2024/01/28 08:29:06;;;;;;;14.38;7.90;;;;;;;;;;10405234;28;20056;-60
2024/01/28 08:34:06;;;;;;;8.77;7.20;;;;;;;;;;10389990;28;20034;-61
2024/01/28 08:39:09;;;;;;;8.43;7.53;;;;;;;;;;10403578;28;20456;-60
2024/01/28 08:44:10;;;;;;;8.57;7.40;;;;;;;;;;10403244;28;20033;-60
2024/01/28 08:49:11;;;;;;;9.32;7.70;;;;;;;;;;10400764;28;20026;-60
2024/01/28 08:54:12;;;;;;;7.22;6.43;;;;;;;;;;10405211;28;20026;-59
2024/01/28 08:59:12;;;;;;;8.60;7.10;;;;;;;;;;10406056;28;20073;-59
2024/01/28 09:04:13;;;;;;;7.45;6.53;;;;;;;;;;10407816;28;20112;-58
2024/01/28 09:09:14;;;;;;;8.93;6.90;;;;;;;;;;10406652;28;20039;-58
2024/01/28 09:14:14;;;;;;;9.18;7.38;;;;;;;;;;10396853;28;20358;-59
2024/01/28 09:19:15;;;;;;;9.40;7.07;;;;;;;;;;10407182;28;20480;-59
2024/01/28 09:24:16;;;;;;;9.23;7.20;;;;;;;;;;10396461;28;20026;-59
2024/01/28 09:29:17;;;;;;;7.75;6.53;;;;;;;;;;10396818;28;20033;-59
2024/01/28 09:34:18;;;;;;;8.25;6.78;;;;;;;;;;10408435;28;20079;-59
2024/01/28 09:39:18;;;;;;;10.07;7.53;;;;;;;;;;10408080;28;20111;-59
2024/01/28 09:44:19;;;;;;;8.70;6.63;;;;;;;;;;10401001;28;20449;-59
2024/01/28 09:49:21;;;;;;;7.35;6.53;;;;;;;;;;10385037;28;20080;-59
2024/01/28 09:54:21;;;;;;;7.75;6.65;;;;;;;;;;10392686;28;20133;-59
2024/01/28 09:59:22;;;;;;;8.45;6.50;;;;;;;;;;10391235;28;20095;-59
2024/01/28 10:04:23;;;;;;;6.47;5.78;;;;;;;;;;10379775;28;20450;-59
2024/01/28 10:09:24;;;;;;;7.28;6.53;;;;;;;;;;10407025;28;20033;-59
2024/01/28 10:14:25;;;;;;;7.85;7.05;;;;;;;;;;10394587;28;20351;-59
2024/01/28 10:19:26;;;;;;;7.10;6.15;;;;;;;;;;10394093;28;20200;-59
2024/01/28 10:24:26;;;;;;;8.25;6.85;;;;;;;;;;10406575;28;20196;-59
2024/01/28 10:29:28;;;;;;;8.68;6.20;;;;;;;;;;10404342;28;20029;-60
2024/01/28 10:34:28;;;;;;;6.80;6.10;;;;;;;;;;10406213;28;20120;-59
2024/01/28 10:39:34;;;;;;;6.78;6.03;;;;;;;;;;10406238;28;20053;-59
2024/01/28 10:44:41;;;;;;;7.03;5.95;;;;;;;;;;10383130;28;20029;-59
2024/01/28 10:49:44;;;;;;;6.60;5.70;;;;;;;;;;10386112;28;20096;-59
2024/01/28 10:54:45;;;;;;;7.03;6.07;;;;;;;;;;10399951;28;20052;-59
2024/01/28 10:59:46;;;;;;;8.02;6.28;;;;;;;;;;10410892;28;20034;-58
2024/01/28 11:04:47;;;;;;;7.60;6.70;;;;;;;;;;10407203;28;20461;-58
2024/01/28 11:09:50;;;;;;;17.55;7.97;;;;;;;;;;10407361;28;20033;-60
2024/01/28 11:14:53;;;;;;;14.73;9.73;;;;;;;;;;10410982;28;21057;-59
2024/01/28 11:20:17;;;;;;;14.27;10.60;;;;;;;;;;10411618;28;20477;-59
2024/01/28 11:25:25;;;;;;;15.55;10.85;;;;;;;;;;10399532;28;20045;-59
2024/01/28 11:30:26;;;;;;;16.85;10.70;;;;;;;;;;10404439;28;20041;-59
2024/01/28 11:35:27;;;;;;;14.73;10.70;;;;;;;;;;10420570;23;20021;-57
2024/01/28 11:40:31;;;;;;;14.52;11.00;;;;;;;;;;10407442;28;20504;-56
2024/01/28 11:45:34;;;;;;;12.57;10.60;;;;;;;;;;10405714;28;20026;-60
2024/01/28 11:50:35;;;;;;;11.98;9.52;;;;;;;;;;10366158;28;20038;-59
2024/01/28 11:55:35;;;;;;;12.85;9.98;;;;;;;;;;10365300;28;20026;-58
2024/01/28 12:00:36;;;;;;;12.43;9.45;;;;;;;;;;10374365;28;20022;-58
2024/01/28 12:05:36;;;;;;;11.60;10.07;;;;;;;;;;10360022;28;20026;-58
2024/01/28 12:10:37;;;;;;;12.05;9.10;;;;;;;;;;10360228;28;20060;-57
2024/01/28 12:15:38;;;;;;;12.02;9.20;;;;;;;;;;10374163;28;20033;-56
2024/01/28 12:20:39;;;;;;;12.05;9.93;;;;;;;;;;10373974;28;20692;-58
2024/01/28 12:25:40;;;;;;;13.23;9.88;;;;;;;;;;10356929;28;20030;-57
2024/01/28 12:30:40;;;;;;;11.05;9.02;;;;;;;;;;10366220;28;20068;-57
2024/01/28 12:35:41;;;;;;;13.40;9.80;;;;;;;;;;10353329;28;20047;-57
2024/01/28 12:40:42;;;;;;;11.43;8.95;;;;;;;;;;10368372;28;20033;-56
2024/01/28 12:45:42;;;;;;;12.70;8.18;;;;;;;;;;10357308;28;20026;-56
2024/01/28 12:50:44;;;;;;;12.25;8.98;;;;;;;;;;10361686;28;20026;-57
2024/01/28 12:55:45;;;;;;;11.70;8.30;;;;;;;;;;10342763;28;20284;-61
2024/01/28 13:00:46;;;;;;;12.18;8.15;;;;;;;;;;10371899;28;20457;-55
2024/01/28 13:05:46;;;;;;;11.57;8.65;;;;;;;;;;10354367;28;20026;-56
2024/01/28 13:10:48;;;;;;;11.15;7.90;;;;;;;;;;10363847;28;20461;-56
2024/01/28 13:15:49;;;;;;;13.35;8.73;;;;;;;;;;10376027;28;20459;-56
2024/01/28 13:20:49;;;;;;;10.40;7.93;;;;;;;;;;10374936;28;20033;-57
2024/01/28 13:25:50;;;;;;;12.23;8.05;;;;;;;;;;10369207;28;20033;-57
2024/01/28 13:30:51;;;;;;;8.15;7.07;;;;;;;;;;10375159;28;20045;-57
2024/01/28 13:35:51;;;;;;;9.25;8.05;;;;;;;;;;10371976;28;20444;-55
2024/01/28 13:40:52;;;;;;;10.75;7.57;;;;;;;;;;10362808;28;20406;-57
2024/01/28 13:45:53;;;;;;;11.40;7.72;;;;;;;;;;10376600;28;20025;-57
2024/01/28 13:50:53;;;;;;;11.57;8.52;;;;;;;;;;10370837;28;20069;-56
2024/01/28 13:55:54;;;;;;;9.25;7.70;;;;;;;;;;10366809;28;20033;-56
2024/01/28 14:00:55;;;;;;;11.98;8.68;;;;;;;;;;10341750;28;20031;-58
2024/01/28 14:05:56;;;;;;;10.45;8.57;;;;;;;;;;10336322;28;20018;-55
2024/01/28 14:10:57;;;;;;;11.40;7.88;;;;;;;;;;10352613;28;20429;-56
2024/01/28 14:15:58;;;;;;;10.48;8.73;;;;;;;;;;10356204;28;20039;-57
2024/01/28 14:20:58;;;;;;;9.65;7.70;;;;;;;;;;10380219;28;20042;-57
2024/01/28 14:25:59;;;;;;;11.23;8.40;;;;;;;;;;10369006;28;20497;-57
2024/01/28 14:31:00;;;;;;;10.02;8.13;;;;;;;;;;10369495;28;20457;-57
2024/01/28 14:36:00;;;;;;;8.35;7.47;;;;;;;;;;10373145;28;20100;-57
2024/01/28 14:41:01;;;;;;;9.32;7.82;;;;;;;;;;10377066;28;20033;-56
2024/01/28 14:46:02;;;;;;;8.98;7.63;;;;;;;;;;10366580;28;20125;-57
2024/01/28 14:51:05;;;;;;;10.27;7.60;;;;;;;;;;10379109;28;20051;-56
2024/01/28 14:56:06;;;;;;;9.50;7.28;;;;;;;;;;10364599;28;20034;-57
2024/01/28 15:01:06;;;;;;;9.27;7.22;;;;;;;;;;10362999;28;20021;-57
2024/01/28 15:06:07;;;;;;;9.68;7.50;;;;;;;;;;10333849;28;20038;-55
2024/01/28 15:11:08;;;;;;;8.77;7.22;;;;;;;;;;10357728;28;20378;-57
2024/01/28 15:16:09;;;;;;;9.57;6.95;;;;;;;;;;10376545;28;20041;-57
2024/01/28 15:21:10;;;;;;;8.52;7.53;;;;;;;;;;10353505;28;20033;-57
2024/01/28 15:26:11;;;;;;;9.27;7.30;;;;;;;;;;10383664;28;20349;-56
2024/01/28 15:31:11;;;;;;;8.85;6.78;;;;;;;;;;10357773;28;20081;-56
2024/01/28 15:36:12;;;;;;;8.18;6.80;;;;;;;;;;10356733;28;20050;-56
2024/01/28 15:41:13;;;;;;;12.38;7.35;;;;;;;;;;10370490;28;20079;-57
2024/01/28 15:46:14;;;;;;;15.25;6.70;;;;;;;;;;10361288;28;20103;-56
2024/01/28 15:51:14;;;;;;;9.02;7.22;;;;;;;;;;10368373;28;20040;-55
2024/01/28 15:56:17;;;;;;;6.88;6.18;;;;;;;;;;10359962;28;20355;-55
2024/01/28 16:01:18;;;;;;;8.65;7.07;;;;;;;;;;10386970;28;20049;-56
2024/01/28 16:06:18;;;;;;;8.32;7.05;;;;;;;;;;10349784;28;20274;-57
2024/01/28 16:11:19;;;;;;;9.07;6.32;;;;;;;;;;10375037;28;20389;-56
2024/01/28 16:16:20;;;;;;;8.50;6.68;;;;;;;;;;10350825;28;20037;-57
2024/01/28 16:21:21;;;;;;;8.70;7.00;;;;;;;;;;10365853;28;20429;-57
2024/01/28 16:26:22;;;;;;;8.80;7.00;;;;;;;;;;10359732;28;20018;-57
2024/01/28 16:31:25;;;;;;;9.90;7.25;;;;;;;;;;10363430;28;20418;-59
2024/01/28 16:36:25;;;;;;;12.00;7.50;;;;;;;;;;10375799;28;20038;-62
2024/01/28 16:41:26;;;;;;;16.95;7.22;;;;;;;;;;10358188;28;20026;-58
2024/01/28 16:46:27;;;;;;;9.88;7.35;;;;;;;;;;10359574;28;20109;-58
2024/01/28 16:51:27;;;;;;;11.32;7.15;;;;;;;;;;10372535;28;20026;-58
2024/01/28 16:56:28;;;;;;;10.75;6.93;;;;;;;;;;10363790;28;20031;-58
2024/01/28 17:01:29;;;;;;;13.13;6.97;;;;;;;;;;10355865;28;20076;-62
2024/01/28 17:06:30;;;;;;;24.25;9.70;;;;;;;;;;10334069;28;20482;-58
2024/01/28 17:11:30;;;;;;;17.52;8.27;;;;;;;;;;10371405;28;20037;-58
2024/01/28 17:16:31;;;;;;;11.93;8.18;;;;;;;;;;10343325;28;20520;-60
2024/01/28 17:21:31;;;;;;;19.88;9.13;;;;;;;;;;10342893;28;20490;-59
2024/01/28 17:26:32;;;;;;;12.93;7.95;;;;;;;;;;10340080;28;20114;-59
2024/01/28 17:31:34;;;;;;;16.50;7.80;;;;;;;;;;10353781;28;20299;-58
2024/01/28 17:36:35;;;;;;;12.73;7.45;;;;;;;;;;10362806;28;20408;-59
2024/01/28 17:41:37;;;;;;;23.60;8.73;;;;;;;;;;10351272;28;20037;-55
2024/01/28 17:46:37;;;;;;;18.00;8.38;;;;;;;;;;10371450;28;20402;-59
2024/01/28 17:51:38;;;;;;;18.23;8.65;;;;;;;;;;10363153;28;20033;-59
2024/01/28 17:56:39;;;;;;;19.52;8.27;;;;;;;;;;10364914;28;20048;-59
2024/01/28 18:01:39;;;;;;;21.05;7.90;;;;;;;;;;10351236;28;20521;-59
2024/01/28 18:06:40;;;;;;;16.83;7.97;;;;;;;;;;10348842;28;20037;-56
2024/01/28 18:11:40;;;;;;;13.70;7.65;;;;;;;;;;10335526;28;20022;-58
2024/01/28 18:16:41;;;;;;;16.70;8.32;;;;;;;;;;10340523;28;20026;-57
2024/01/28 18:21:42;;;;;;;17.17;8.55;;;;;;;;;;10357402;28;20026;-57
2024/01/28 18:26:43;;;;;;;22.10;7.20;;;;;;;;;;10361694;28;20614;-56
2024/01/28 18:31:44;;;;;;;17.38;7.65;;;;;;;;;;10341717;28;20026;-58
2024/01/28 18:36:44;;;;;;;13.57;7.60;;;;;;;;;;10344297;28;20053;-57
2024/01/28 18:41:45;;;;;;;8.70;7.28;;;;;;;;;;10357422;28;20359;-58
2024/01/28 18:46:45;;;;;;;10.27;7.22;;;;;;;;;;10362934;28;20125;-58
2024/01/28 18:51:46;;;;;;;11.13;7.03;;;;;;;;;;10350230;28;20076;-58
2024/01/28 18:56:46;;;;;;;14.95;7.32;;;;;;;;;;10359525;28;20301;-59
2024/01/28 19:01:47;;;;;;;11.13;6.85;;;;;;;;;;10366577;28;20037;-59
2024/01/28 19:06:48;;;;;;;11.40;6.63;;;;;;;;;;10348790;28;20808;-59
2024/01/28 19:11:48;;;;;;;20.90;7.20;;;;;;;;;;10347824;28;20034;-58
2024/01/28 19:16:49;;;;;;;13.25;6.75;;;;;;;;;;10349707;28;20021;-57
2024/01/28 19:21:49;;;;;;;10.45;7.22;;;;;;;;;;10355509;28;20574;-56
2024/01/28 19:26:50;;;;;;;12.27;7.32;;;;;;;;;;10362371;28;20034;-57
2024/01/28 19:31:50;;;;;;;18.02;9.73;;;;;;;;;;10353312;28;20044;-56
2024/01/28 19:36:51;;;;;;;18.27;9.75;;;;;;;;;;10345514;28;20046;-58
2024/01/28 19:41:52;;;;;;;11.75;9.23;;;;;;;;;;10359788;28;20038;-57
2024/01/28 19:46:52;;;;;;;17.23;9.85;;;;;;;;;;10350203;28;20037;-61
2024/01/28 19:51:53;;;;;;;11.65;8.77;;;;;;;;;;10349750;28;20042;-55
2024/01/28 19:56:54;;;;;;;12.90;9.48;;;;;;;;;;10351254;28;20497;-56
2024/01/28 20:01:55;;;;;;;14.13;9.23;;;;;;;;;;10358009;28;20030;-57
2024/01/28 20:06:56;;;;;;;11.77;8.55;;;;;;;;;;10369368;28;20030;-58
2024/01/28 20:11:57;;;;;;;10.73;7.72;;;;;;;;;;10370978;28;20533;-58
2024/01/28 20:16:57;;;;;;;10.85;8.45;;;;;;;;;;10371963;28;20030;-59
2024/01/28 20:21:58;;;;;;;21.20;9.23;;;;;;;;;;10361060;28;20049;-58
2024/01/28 20:26:58;;;;;;;28.70;10.40;;;;;;;;;;10358491;28;20034;-55
2024/01/28 20:31:59;;;;;;;19.23;9.60;;;;;;;;;;10370380;28;20041;-56
2024/01/28 20:37:00;;;;;;;23.33;10.20;;;;;;;;;;10370532;28;20046;-56
2024/01/28 20:42:04;;;;;;;16.02;9.05;;;;;;;;;;10346850;28;20145;-56
2024/01/28 20:47:08;;;;;;;12.80;8.73;;;;;;;;;;10353903;28;20034;-53
2024/01/28 20:52:08;;;;;;;15.55;9.35;;;;;;;;;;10355687;28;20038;-57
2024/01/28 20:57:09;;;;;;;14.45;9.05;;;;;;;;;;10363103;28;20401;-52
2024/01/28 21:02:10;;;;;;;14.48;8.75;;;;;;;;;;10366667;28;20057;-51
2024/01/28 21:07:11;;;;;;;17.27;8.88;;;;;;;;;;10360583;28;20038;-57
2024/01/28 21:12:11;;;;;;;13.85;8.77;;;;;;;;;;10349158;28;20397;-55
2024/01/28 21:17:12;;;;;;;12.70;8.52;;;;;;;;;;10361536;28;20026;-57
2024/01/28 21:22:18;;;;;;;13.68;7.65;;;;;;;;;;10355506;28;20041;-59
2024/01/28 21:27:19;;;;;;;11.68;8.23;;;;;;;;;;10356280;28;20053;-56
2024/01/28 21:32:21;;;;;;;17.55;9.02;;;;;;;;;;10354787;28;20030;-56
2024/01/28 21:37:21;;;;;;;20.27;8.05;;;;;;;;;;10374795;28;20145;-57
2024/01/28 21:42:22;;;;;;;14.30;8.73;;;;;;;;;;10360565;28;20476;-58
2024/01/28 21:47:22;;;;;;;15.30;8.20;;;;;;;;;;10339013;28;20129;-56
2024/01/28 21:52:23;;;;;;;15.10;7.72;;;;;;;;;;10360910;28;20061;-59
2024/01/28 21:57:24;;;;;;;11.38;7.68;;;;;;;;;;10348378;28;20037;-57
2024/01/28 22:02:24;;;;;;;10.02;7.30;;;;;;;;;;10359200;28;20033;-65
2024/01/28 22:07:25;;;;;;;17.30;7.65;;;;;;;;;;10357800;28;20037;-55
2024/01/28 22:12:26;;;;;;;11.30;7.43;;;;;;;;;;10352196;28;20026;-53
2024/01/28 22:17:26;;;;;;;16.17;7.95;;;;;;;;;;10356619;28;20060;-55
2024/01/28 22:22:27;;;;;;;12.18;7.40;;;;;;;;;;10360642;28;20034;-56
2024/01/28 22:27:28;;;;;;;11.63;7.60;;;;;;;;;;10340464;28;20212;-59
2024/01/28 22:32:28;;;;;;;11.20;7.80;;;;;;;;;;10333086;28;20041;-59
2024/01/28 22:37:29;;;;;;;11.27;8.23;;;;;;;;;;10360407;28;20050;-56
2024/01/28 22:42:29;;;;;;;12.20;8.18;;;;;;;;;;10352804;28;20030;-54
2024/01/28 22:47:30;;;;;;;14.20;8.75;;;;;;;;;;10341498;28;20068;-57
2024/01/28 22:52:31;;;;;;;13.73;8.10;;;;;;;;;;10342615;28;20034;-57
2024/01/28 22:57:32;;;;;;;11.63;8.43;;;;;;;;;;10386366;28;20033;-57
2024/01/28 23:02:32;;;;;;;14.65;8.85;;;;;;;;;;10375446;28;20473;-55
2024/01/28 23:07:33;;;;;;;11.82;8.45;;;;;;;;;;10353778;28;20026;-55
2024/01/28 23:12:34;;;;;;;11.95;8.70;;;;;;;;;;10369633;28;20365;-56
2024/01/28 23:17:35;;;;;;;10.75;8.50;;;;;;;;;;10374632;28;20432;-55
2024/01/28 23:22:35;;;;;;;12.90;8.52;;;;;;;;;;10377485;28;20034;-57
2024/01/28 23:27:36;;;;;;;12.02;8.57;;;;;;;;;;10362718;28;20026;-57
2024/01/28 23:32:37;;;;;;;15.48;8.70;;;;;;;;;;10359420;28;20033;-56
2024/01/28 23:37:38;;;;;;;8.85;7.72;;;;;;;;;;10362337;28;20462;-57
2024/01/28 23:42:39;;;;;;;12.45;8.93;;;;;;;;;;10369489;28;20209;-55
2024/01/28 23:47:40;;;;;;;14.45;8.05;;;;;;;;;;10378905;28;20163;-57
2024/01/28 23:52:40;;;;;;;11.18;8.25;;;;;;;;;;10372307;28;20034;-58
2024/01/28 23:57:41;;;;;;;10.30;8.05;;;;;;;;;;10364713;28;20165;-60
